createdAt,value
2022-10-04T00:00:23.070Z,11.2
2022-10-04T00:01:26.012Z,11.2
2022-10-04T00:02:28.812Z,11.3
2022-10-04T00:03:32.219Z,11.2
2022-10-04T00:04:35.289Z,11.2
2022-10-04T00:05:38.359Z,11.2
2022-10-04T00:06:41.461Z,11.2
2022-10-04T00:07:44.448Z,11.2
2022-10-04T00:08:47.525Z,11.3
2022-10-04T00:09:50.129Z,11.3
2022-10-04T00:10:52.867Z,11.3
2022-10-04T00:11:56.098Z,11.3
2022-10-04T00:12:59.536Z,11.3
2022-10-04T00:14:02.671Z,11.3
2022-10-04T00:15:05.877Z,11.3
2022-10-04T00:16:09.523Z,11.3
2022-10-04T00:17:12.882Z,11.3
2022-10-04T00:18:16.024Z,11.3
2022-10-04T00:19:19.184Z,11.4
2022-10-04T00:20:22.387Z,11.3
2022-10-04T00:21:25.764Z,11.3
2022-10-04T00:22:29.313Z,11.3
2022-10-04T00:23:32.691Z,11.3
2022-10-04T00:24:35.215Z,11.3
2022-10-04T00:25:37.734Z,11.3
2022-10-04T00:26:40.542Z,11.3
2022-10-04T00:27:43.613Z,11.4
2022-10-04T00:28:46.806Z,11.4
2022-10-04T00:29:50.283Z,11.4
2022-10-04T00:30:53.721Z,11.4
2022-10-04T00:31:56.579Z,11.4
2022-10-04T00:32:59.454Z,11.3
2022-10-04T00:34:02.332Z,11.3
2022-10-04T00:35:05.658Z,11.3
2022-10-04T00:36:09.091Z,11.3
2022-10-04T00:37:11.615Z,11.3
2022-10-04T00:38:15.034Z,11.4
2022-10-04T00:39:18.377Z,11.4
2022-10-04T00:40:21.464Z,11.4
2022-10-04T00:41:24.070Z,11.3
2022-10-04T00:42:26.596Z,11.3
2022-10-04T00:43:30.050Z,11.4
2022-10-04T00:44:33.847Z,11.4
2022-10-04T00:45:36.944Z,11.4
2022-10-04T00:46:40.478Z,11.5
2022-10-04T00:47:43.593Z,11.4
2022-10-04T00:48:46.584Z,11.3
2022-10-04T00:49:50.082Z,11.2
2022-10-04T00:50:52.945Z,11.3
2022-10-04T00:51:55.520Z,11.3
2022-10-04T00:52:58.665Z,11.4
2022-10-04T00:54:01.263Z,11.3
2022-10-04T00:55:03.980Z,11.3
2022-10-04T00:56:07.060Z,11.3
2022-10-04T00:57:10.413Z,11.4
2022-10-04T00:58:14.169Z,11.3
2022-10-04T00:59:16.409Z,11.3
2022-10-04T01:00:19.420Z,11.3
2022-10-04T01:01:22.551Z,11.3
2022-10-04T01:02:26.485Z,11.3
2022-10-04T01:03:29.898Z,11.3
2022-10-04T01:04:32.964Z,11.3
2022-10-04T01:05:36.419Z,11.2
2022-10-04T01:06:39.983Z,11.2
2022-10-04T01:07:43.062Z,11.3
2022-10-04T01:08:45.594Z,11.2
2022-10-04T01:09:48.669Z,11.3
2022-10-04T01:10:52.019Z,11.3
2022-10-04T01:11:54.175Z,11.4
2022-10-04T01:12:56.690Z,11.4
2022-10-04T01:14:00.156Z,11.4
2022-10-04T01:15:03.146Z,11.4
2022-10-04T01:16:07.349Z,11.4
2022-10-04T01:17:09.893Z,11.3
2022-10-04T01:18:13.402Z,11.4
2022-10-04T01:19:16.489Z,11.4
2022-10-04T01:20:19.280Z,11.4
2022-10-04T01:21:22.164Z,11.4
2022-10-04T01:22:25.283Z,11.3
2022-10-04T01:23:28.353Z,11.3
2022-10-04T01:24:31.238Z,11.3
2022-10-04T01:25:33.676Z,11.4
2022-10-04T01:26:35.862Z,11.4
2022-10-04T01:27:39.411Z,11.4
2022-10-04T01:28:42.823Z,11.5
2022-10-04T01:29:45.911Z,11.5
2022-10-04T01:30:48.425Z,11.5
2022-10-04T01:31:52.076Z,11.5
2022-10-04T01:32:55.447Z,11.5
2022-10-04T01:33:59.140Z,11.6
2022-10-04T01:35:01.405Z,11.5
2022-10-04T01:36:04.865Z,11.5
2022-10-04T01:37:07.748Z,11.5
2022-10-04T01:38:10.786Z,11.5
2022-10-04T01:39:14.003Z,11.5
2022-10-04T01:40:17.160Z,11.5
2022-10-04T01:41:20.611Z,11.5
2022-10-04T01:42:23.510Z,11.5
2022-10-04T01:43:25.990Z,11.5
2022-10-04T01:44:28.606Z,11.6
2022-10-04T01:45:31.986Z,11.5
2022-10-04T01:46:35.530Z,11.6
2022-10-04T01:47:39.285Z,11.6
2022-10-04T01:48:42.164Z,11.6
2022-10-04T01:49:45.557Z,11.6
2022-10-04T01:50:48.423Z,11.6
2022-10-04T01:51:51.448Z,11.7
2022-10-04T01:52:54.347Z,11.6
2022-10-04T01:53:57.577Z,11.6
2022-10-04T01:55:00.725Z,11.6
2022-10-04T01:56:03.445Z,11.6
2022-10-04T01:57:06.229Z,11.7
2022-10-04T01:58:09.374Z,11.6
2022-10-04T01:59:12.172Z,11.6
2022-10-04T02:00:15.591Z,11.6
2022-10-04T02:01:18.989Z,11.7
2022-10-04T02:02:21.689Z,11.6
2022-10-04T02:03:25.333Z,11.6
2022-10-04T02:04:28.490Z,11.7
2022-10-04T02:05:31.743Z,11.7
2022-10-04T02:06:34.289Z,11.6
2022-10-04T02:07:37.172Z,11.7
2022-10-04T02:08:40.042Z,11.6
2022-10-04T02:09:43.155Z,11.7
2022-10-04T02:10:45.760Z,11.7
2022-10-04T02:11:49.035Z,11.6
2022-10-04T02:12:52.253Z,11.7
2022-10-04T02:13:55.641Z,11.7
2022-10-04T02:14:58.815Z,11.7
2022-10-04T02:16:01.824Z,11.7
2022-10-04T02:17:04.831Z,11.7
2022-10-04T02:18:07.977Z,11.6
2022-10-04T02:19:11.119Z,11.6
2022-10-04T02:20:13.990Z,11.7
2022-10-04T02:21:17.170Z,11.7
2022-10-04T02:22:19.814Z,11.7
2022-10-04T02:23:22.801Z,11.6
2022-10-04T02:24:26.223Z,11.6
2022-10-04T02:25:29.050Z,11.7
2022-10-04T02:26:32.406Z,11.8
2022-10-04T02:27:35.484Z,11.7
2022-10-04T02:28:38.828Z,11.6
2022-10-04T02:29:41.927Z,11.6
2022-10-04T02:30:44.356Z,11.7
2022-10-04T02:31:48.420Z,11.7
2022-10-04T02:32:51.579Z,11.7
2022-10-04T02:33:55.223Z,11.7
2022-10-04T02:34:58.532Z,11.7
2022-10-04T02:36:01.553Z,11.7
2022-10-04T02:37:05.041Z,11.7
2022-10-04T02:38:08.421Z,11.7
2022-10-04T02:39:11.485Z,11.7
2022-10-04T02:40:15.140Z,11.7
2022-10-04T02:41:18.051Z,11.6
2022-10-04T02:42:21.481Z,11.6
2022-10-04T02:43:23.443Z,11.6
2022-10-04T02:44:26.022Z,11.5
2022-10-04T02:45:29.536Z,11.5
2022-10-04T02:46:33.092Z,11.6
2022-10-04T02:47:36.537Z,11.6
2022-10-04T02:48:39.144Z,11.5
2022-10-04T02:49:41.947Z,11.5
2022-10-04T02:50:44.271Z,11.5
2022-10-04T02:51:46.592Z,11.5
2022-10-04T02:52:50.079Z,11.6
2022-10-04T02:53:52.896Z,11.6
2022-10-04T02:54:56.043Z,11.6
2022-10-04T02:55:59.210Z,11.6
2022-10-04T02:57:02.219Z,11.6
2022-10-04T02:58:05.932Z,11.6
2022-10-04T02:59:09.654Z,11.5
2022-10-04T03:00:12.642Z,11.5
2022-10-04T03:01:16.195Z,11.5
2022-10-04T03:02:31.100Z,11.5
2022-10-04T03:03:34.288Z,11.5
2022-10-04T03:04:37.310Z,11.5
2022-10-04T03:05:41.024Z,11.4
2022-10-04T03:06:43.894Z,11.5
2022-10-04T03:07:47.065Z,11.3
2022-10-04T03:08:50.550Z,11.4
2022-10-04T03:09:53.448Z,11.4
2022-10-04T03:10:56.248Z,11.3
2022-10-04T03:11:59.415Z,11.3
2022-10-04T03:13:02.894Z,11.4
2022-10-04T03:14:05.831Z,11.2
2022-10-04T03:15:08.493Z,11.3
2022-10-04T03:16:11.746Z,11.4
2022-10-04T03:17:15.294Z,11.4
2022-10-04T03:18:17.749Z,11.3
2022-10-04T03:19:20.817Z,11.3
2022-10-04T03:20:24.173Z,11.4
2022-10-04T03:21:26.834Z,11.4
2022-10-04T03:22:30.477Z,11.4
2022-10-04T03:23:33.399Z,11.5
2022-10-04T03:24:36.890Z,11.5
2022-10-04T03:25:39.790Z,11.5
2022-10-04T03:26:42.763Z,11.5
2022-10-04T03:27:45.647Z,11.6
2022-10-04T03:28:48.126Z,11.6
2022-10-04T03:29:58.326Z,11.4
2022-10-04T03:31:02.790Z,11.3
2022-10-04T03:32:05.351Z,11.4
2022-10-04T03:33:08.815Z,11.4
2022-10-04T03:34:12.029Z,11.4
2022-10-04T03:35:14.635Z,11.4
2022-10-04T03:36:17.171Z,11.5
2022-10-04T03:37:19.680Z,11.5
2022-10-04T03:38:22.863Z,11.5
2022-10-04T03:39:26.325Z,11.5
2022-10-04T03:40:30.369Z,11.5
2022-10-04T03:41:33.256Z,11.6
2022-10-04T03:42:36.608Z,11.5
2022-10-04T03:43:39.355Z,11.4
2022-10-04T03:44:42.640Z,11.5
2022-10-04T03:45:46.180Z,11.5
2022-10-04T03:46:49.125Z,11.4
2022-10-04T03:47:52.851Z,11.4
2022-10-04T03:48:56.212Z,11.4
2022-10-04T03:49:58.798Z,11.4
2022-10-04T03:51:02.263Z,11.5
2022-10-04T03:52:04.991Z,11.5
2022-10-04T03:53:07.401Z,11.4
2022-10-04T03:54:10.773Z,11.4
2022-10-04T03:55:13.651Z,11.3
2022-10-04T03:56:17.114Z,11.2
2022-10-04T03:57:19.446Z,11.2
2022-10-04T03:58:22.242Z,11.2
2022-10-04T03:59:25.862Z,11.2
2022-10-04T04:00:28.774Z,11.3
2022-10-04T04:01:32.206Z,11.3
2022-10-04T04:02:35.913Z,11.4
2022-10-04T04:03:39.040Z,11.4
2022-10-04T04:04:42.129Z,11.4
2022-10-04T04:05:45.023Z,11.4
2022-10-04T04:06:48.087Z,11.3
2022-10-04T04:07:51.545Z,11.3
2022-10-04T04:08:54.490Z,11.4
2022-10-04T04:09:57.953Z,11.4
2022-10-04T04:11:00.945Z,11.5
2022-10-04T04:12:04.344Z,11.5
2022-10-04T04:13:07.526Z,11.5
2022-10-04T04:14:10.598Z,11.5
2022-10-04T04:15:13.616Z,11.5
2022-10-04T04:16:17.865Z,11.5
2022-10-04T04:17:21.425Z,11.6
2022-10-04T04:18:24.767Z,11.6
2022-10-04T04:19:28.113Z,11.5
2022-10-04T04:20:30.980Z,11.6
2022-10-04T04:21:34.728Z,11.6
2022-10-04T04:22:37.717Z,11.6
2022-10-04T04:23:40.846Z,11.6
2022-10-04T04:24:43.287Z,11.5
2022-10-04T04:25:47.060Z,11.5
2022-10-04T04:26:49.386Z,11.5
2022-10-04T04:27:53.099Z,11.6
2022-10-04T04:28:56.656Z,11.6
2022-10-04T04:29:59.827Z,11.6
2022-10-04T04:31:03.279Z,11.6
2022-10-04T04:32:06.805Z,11.6
2022-10-04T04:33:10.392Z,11.5
2022-10-04T04:34:13.263Z,11.4
2022-10-04T04:35:15.705Z,11.4
2022-10-04T04:36:18.771Z,11.5
2022-10-04T04:37:21.300Z,11.5
2022-10-04T04:38:23.541Z,11.3
2022-10-04T04:39:27.360Z,11.4
2022-10-04T04:40:30.538Z,11.3
2022-10-04T04:41:33.628Z,11.4
2022-10-04T04:42:36.141Z,11.4
2022-10-04T04:43:39.532Z,11.4
2022-10-04T04:44:43.106Z,11.5
2022-10-04T04:45:46.779Z,11.5
2022-10-04T04:47:30.489Z,11.6
2022-10-04T04:48:33.570Z,11.6
2022-10-04T04:49:36.388Z,11.6
2022-10-04T04:50:39.803Z,11.4
2022-10-04T04:51:44.344Z,11.4
2022-10-04T04:52:47.904Z,11.4
2022-10-04T04:53:51.175Z,11.5
2022-10-04T04:54:54.620Z,11.5
2022-10-04T04:56:18.058Z,11.6
2022-10-04T04:57:21.176Z,11.6
2022-10-04T04:58:23.766Z,11.6
2022-10-04T04:59:27.252Z,11.6
2022-10-04T05:00:31.191Z,11.6
2022-10-04T05:01:34.847Z,11.5
2022-10-04T05:02:38.618Z,11.5
2022-10-04T05:03:41.801Z,11.4
2022-10-04T05:04:44.973Z,11.4
2022-10-04T05:05:47.963Z,11.5
2022-10-04T05:06:51.024Z,11.4
2022-10-04T05:07:54.085Z,11.4
2022-10-04T05:08:56.876Z,11.4
2022-10-04T05:10:00.383Z,11.4
2022-10-04T05:11:02.811Z,11.3
2022-10-04T05:12:05.895Z,11.3
2022-10-04T05:13:09.281Z,11.4
2022-10-04T05:14:12.186Z,11.4
2022-10-04T05:15:19.412Z,11.3
2022-10-04T05:16:22.906Z,11.4
2022-10-04T05:17:26.386Z,11.4
2022-10-04T05:18:29.490Z,11.4
2022-10-04T05:19:32.587Z,11.3
2022-10-04T05:20:35.665Z,11.2
2022-10-04T05:21:45.383Z,11.3
2022-10-04T05:22:48.897Z,11.4
2022-10-04T05:23:51.771Z,11.4
2022-10-04T05:24:54.107Z,11.4
2022-10-04T05:25:57.118Z,11.4
2022-10-04T05:26:59.832Z,11.3
2022-10-04T05:28:03.532Z,11.4
2022-10-04T05:29:06.917Z,11.5
2022-10-04T05:30:10.103Z,11.5
2022-10-04T05:31:14.220Z,11.6
2022-10-04T05:32:17.641Z,11.4
2022-10-04T05:33:20.983Z,11.4
2022-10-04T05:34:23.616Z,11.5
2022-10-04T05:35:26.787Z,11.5
2022-10-04T05:36:30.518Z,11.5
2022-10-04T05:37:33.664Z,11.6
2022-10-04T05:38:37.085Z,11.4
2022-10-04T05:39:40.419Z,11.4
2022-10-04T05:40:42.936Z,11.4
2022-10-04T05:41:47.070Z,11.4
2022-10-04T05:42:49.740Z,11.4
2022-10-04T05:43:52.816Z,11.3
2022-10-04T05:44:55.717Z,11.2
2022-10-04T05:45:59.383Z,11.2
2022-10-04T05:47:02.801Z,11.3
2022-10-04T05:48:05.921Z,11.4
2022-10-04T05:49:09.058Z,11.3
2022-10-04T05:50:12.066Z,11.4
2022-10-04T05:51:15.214Z,11.2
2022-10-04T05:52:18.013Z,11.2
2022-10-04T05:53:21.156Z,11.2
2022-10-04T05:54:24.158Z,11.3
2022-10-04T05:55:27.406Z,11.4
2022-10-04T05:56:31.071Z,11.4
2022-10-04T05:57:33.352Z,11.4
2022-10-04T05:58:36.495Z,11.3
2022-10-04T05:59:40.224Z,11.4
2022-10-04T06:00:43.397Z,11.3
2022-10-04T06:01:48.877Z,11.4
2022-10-04T06:02:52.567Z,11.4
2022-10-04T06:03:55.838Z,11.5
2022-10-04T06:04:58.622Z,11.4
2022-10-04T06:06:01.374Z,11.4
2022-10-04T06:07:04.795Z,11.4
2022-10-04T06:08:08.521Z,11.4
2022-10-04T06:09:11.400Z,11.4
2022-10-04T06:10:13.643Z,11.4
2022-10-04T06:11:16.452Z,11.5
2022-10-04T06:12:19.052Z,11.6
2022-10-04T06:13:22.567Z,11.5
2022-10-04T06:14:25.473Z,11.5
2022-10-04T06:15:28.643Z,11.3
2022-10-04T06:16:32.229Z,11.4
2022-10-04T06:17:35.596Z,11.5
2022-10-04T06:18:39.379Z,11.5
2022-10-04T06:19:42.622Z,11.6
2022-10-04T06:20:45.624Z,11.6
2022-10-04T06:21:48.372Z,11.5
2022-10-04T06:22:51.893Z,11.6
2022-10-04T06:23:54.984Z,11.6
2022-10-04T06:24:58.158Z,11.5
2022-10-04T06:26:01.232Z,11.5
2022-10-04T06:27:03.468Z,11.7
2022-10-04T06:28:06.486Z,11.6
2022-10-04T06:29:09.672Z,11.6
2022-10-04T06:30:12.743Z,11.6
2022-10-04T06:31:15.931Z,11.5
2022-10-04T06:32:19.409Z,11.6
2022-10-04T06:33:22.949Z,11.6
2022-10-04T06:34:26.844Z,11.5
2022-10-04T06:35:30.572Z,11.4
2022-10-04T06:36:33.646Z,11.5
2022-10-04T06:37:36.575Z,11.4
2022-10-04T06:38:39.382Z,11.4
2022-10-04T06:39:41.894Z,11.5
2022-10-04T06:40:44.960Z,11.4
2022-10-04T06:41:48.139Z,11.4
2022-10-04T06:42:50.730Z,11.5
2022-10-04T06:43:53.558Z,11.6
2022-10-04T06:44:56.744Z,11.5
2022-10-04T06:46:00.846Z,11.6
2022-10-04T06:47:03.481Z,11.5
2022-10-04T06:48:06.859Z,11.5
2022-10-04T06:49:10.375Z,11.6
2022-10-04T06:50:13.841Z,11.7
2022-10-04T06:51:17.307Z,11.7
2022-10-04T06:52:20.184Z,11.6
2022-10-04T06:53:23.592Z,11.6
2022-10-04T06:54:27.062Z,11.7
2022-10-04T06:55:30.701Z,11.6
2022-10-04T06:56:33.454Z,11.6
2022-10-04T06:57:35.964Z,11.5
2022-10-04T06:58:39.320Z,11.6
2022-10-04T06:59:43.074Z,11.6
2022-10-04T07:00:45.693Z,11.7
2022-10-04T07:01:50.326Z,11.7
2022-10-04T07:02:53.591Z,11.8
2022-10-04T07:03:56.769Z,11.8
2022-10-04T07:05:15.612Z,11.8
2022-10-04T07:06:19.601Z,11.8
2022-10-04T07:07:22.707Z,11.8
2022-10-04T07:08:25.892Z,11.8
2022-10-04T07:09:29.343Z,11.8
2022-10-04T07:10:32.282Z,11.8
2022-10-04T07:11:35.661Z,11.9
2022-10-04T07:12:38.175Z,11.9
2022-10-04T07:13:41.795Z,11.9
2022-10-04T07:14:44.532Z,11.4
2022-10-04T07:15:46.877Z,11.5
2022-10-04T07:16:50.367Z,11.6
2022-10-04T07:17:53.151Z,11.7
2022-10-04T07:18:56.211Z,11.8
2022-10-04T07:19:59.946Z,11.8
2022-10-04T07:21:02.565Z,11.8
2022-10-04T07:22:05.964Z,11.8
2022-10-04T07:23:08.528Z,11.9
2022-10-04T07:24:12.254Z,11.9
2022-10-04T07:25:15.436Z,11.9
2022-10-04T07:26:19.159Z,11.8
2022-10-04T07:27:22.614Z,11.9
2022-10-04T07:28:25.430Z,11.8
2022-10-04T07:29:28.339Z,11.9
2022-10-04T07:30:32.067Z,11.9
2022-10-04T07:31:34.801Z,11.9
2022-10-04T07:32:38.600Z,11.8
2022-10-04T07:33:41.774Z,11.8
2022-10-04T07:34:45.001Z,11.6
2022-10-04T07:35:48.114Z,11.7
2022-10-04T07:36:50.694Z,11.8
2022-10-04T07:37:54.449Z,11.9
2022-10-04T07:38:58.136Z,12
2022-10-04T07:40:01.565Z,12
2022-10-04T07:41:05.284Z,11.9
2022-10-04T07:42:08.547Z,12
2022-10-04T07:43:11.709Z,12
2022-10-04T07:44:15.738Z,12.1
2022-10-04T07:45:18.730Z,12
2022-10-04T07:46:22.550Z,12
2022-10-04T07:47:25.762Z,12
2022-10-04T07:48:28.863Z,11.9
2022-10-04T07:49:31.734Z,12
2022-10-04T07:50:34.425Z,12
2022-10-04T07:51:36.951Z,12.1
2022-10-04T07:52:40.303Z,12.2
2022-10-04T07:53:43.813Z,12.3
2022-10-04T07:54:47.183Z,12.3
2022-10-04T07:55:50.310Z,12.3
2022-10-04T07:56:53.672Z,12.3
2022-10-04T07:57:56.732Z,12.3
2022-10-04T07:58:59.877Z,12.3
2022-10-04T08:00:03.257Z,12.2
2022-10-04T08:01:06.337Z,12.1
2022-10-04T08:02:10.318Z,12.1
2022-10-04T08:03:14.616Z,12.3
2022-10-04T08:04:17.954Z,12.2
2022-10-04T08:05:21.414Z,12.3
2022-10-04T08:06:25.145Z,12.4
2022-10-04T08:07:28.809Z,12.3
2022-10-04T08:08:32.272Z,12.3
2022-10-04T08:09:35.666Z,12.4
2022-10-04T08:10:38.986Z,12.4
2022-10-04T08:11:43.855Z,12.5
2022-10-04T08:12:47.083Z,12.5
2022-10-04T08:13:50.162Z,12.4
2022-10-04T08:14:52.321Z,12.3
2022-10-04T08:15:56.012Z,12.5
2022-10-04T08:16:58.703Z,12.6
2022-10-04T08:18:01.855Z,12.5
2022-10-04T08:19:05.210Z,12.5
2022-10-04T08:20:07.663Z,12.6
2022-10-04T08:21:10.818Z,12.6
2022-10-04T08:22:14.170Z,12.6
2022-10-04T08:23:17.998Z,12.5
2022-10-04T08:24:20.878Z,12.6
2022-10-04T08:25:24.365Z,12.7
2022-10-04T08:26:27.300Z,12.6
2022-10-04T08:27:30.841Z,12.7
2022-10-04T08:28:34.293Z,12.5
2022-10-04T08:29:37.124Z,12.5
2022-10-04T08:30:41.262Z,12.6
2022-10-04T08:31:45.384Z,12.6
2022-10-04T08:32:48.838Z,12.6
2022-10-04T08:33:51.935Z,12.6
2022-10-04T08:34:55.489Z,12.6
2022-10-04T08:35:58.924Z,12.7
2022-10-04T08:37:02.277Z,12.7
2022-10-04T08:38:06.081Z,12.6
2022-10-04T08:39:09.515Z,12.7
2022-10-04T08:40:15.437Z,12.7
2022-10-04T08:41:19.649Z,12.7
2022-10-04T08:42:22.862Z,12.8
2022-10-04T08:43:27.041Z,12.9
2022-10-04T08:44:30.747Z,12.9
2022-10-04T08:45:33.625Z,12.9
2022-10-04T08:46:36.583Z,12.8
2022-10-04T08:47:40.103Z,12.8
2022-10-04T08:48:43.462Z,12.9
2022-10-04T08:49:46.293Z,12.9
2022-10-04T08:50:49.732Z,13
2022-10-04T08:51:52.949Z,13
2022-10-04T08:52:55.549Z,12.9
2022-10-04T08:53:58.379Z,13
2022-10-04T08:55:01.571Z,13
2022-10-04T08:56:05.033Z,13.1
2022-10-04T08:57:17.211Z,13.1
2022-10-04T08:58:21.253Z,12.9
2022-10-04T08:59:24.042Z,12.9
2022-10-04T09:00:27.509Z,12.9
2022-10-04T09:01:30.723Z,13.1
2022-10-04T09:02:34.252Z,13.2
2022-10-04T09:03:38.009Z,13.3
2022-10-04T09:04:41.187Z,13.3
2022-10-04T09:05:44.071Z,13
2022-10-04T09:06:47.698Z,13.1
2022-10-04T09:07:50.506Z,13
2022-10-04T09:08:53.306Z,12.9
2022-10-04T09:09:56.580Z,13
2022-10-04T09:10:59.184Z,13.2
2022-10-04T09:12:01.705Z,13.2
2022-10-04T09:13:05.186Z,13.3
2022-10-04T09:14:08.894Z,13.5
2022-10-04T09:15:11.978Z,13.6
2022-10-04T09:16:15.332Z,13.2
2022-10-04T09:17:24.548Z,13.4
2022-10-04T09:18:27.537Z,13.5
2022-10-04T09:19:30.253Z,13.6
2022-10-04T09:20:42.031Z,13.5
2022-10-04T09:21:45.172Z,13.6
2022-10-04T09:22:48.499Z,13.7
2022-10-04T09:23:52.174Z,13.7
2022-10-04T09:24:54.776Z,13.6
2022-10-04T09:25:57.578Z,13.6
2022-10-04T09:27:00.752Z,13.8
2022-10-04T09:28:03.948Z,13.9
2022-10-04T09:29:08.077Z,13.8
2022-10-04T09:30:11.090Z,13.7
2022-10-04T09:31:14.668Z,13.7
2022-10-04T09:32:18.518Z,13.8
2022-10-04T09:33:21.363Z,13.7
2022-10-04T09:34:24.484Z,13.8
2022-10-04T09:35:27.548Z,13.8
2022-10-04T09:36:30.268Z,13.8
2022-10-04T09:37:33.729Z,13.7
2022-10-04T09:38:36.726Z,13.7
2022-10-04T09:39:39.817Z,13.8
2022-10-04T09:40:48.642Z,13.8
2022-10-04T09:41:51.984Z,13.7
2022-10-04T09:42:55.160Z,13.7
2022-10-04T09:43:58.890Z,13.9
2022-10-04T09:45:02.368Z,13.9
2022-10-04T09:46:05.966Z,13.9
2022-10-04T09:47:10.181Z,13.9
2022-10-04T09:48:13.402Z,14.1
2022-10-04T09:49:17.153Z,14
2022-10-04T09:50:20.492Z,14.1
2022-10-04T09:51:23.441Z,14.1
2022-10-04T09:52:26.595Z,14.4
2022-10-04T09:53:29.969Z,14.5
2022-10-04T09:54:33.039Z,14.6
2022-10-04T09:55:36.310Z,14.5
2022-10-04T09:56:39.813Z,14.7
2022-10-04T09:57:43.353Z,14.7
2022-10-04T09:58:47.222Z,14.9
2022-10-04T09:59:50.006Z,15
2022-10-04T10:00:53.796Z,15
2022-10-04T10:01:57.182Z,15.2
2022-10-04T10:03:00.934Z,15.2
2022-10-04T10:04:04.852Z,15.3
2022-10-04T10:05:08.682Z,15.3
2022-10-04T10:06:11.836Z,15.3
2022-10-04T10:07:15.265Z,15.2
2022-10-04T10:08:18.173Z,15
2022-10-04T10:09:21.246Z,14.9
2022-10-04T10:10:24.244Z,15
2022-10-04T10:11:27.669Z,15
2022-10-04T10:12:31.135Z,15
2022-10-04T10:13:34.035Z,15
2022-10-04T10:14:37.323Z,14.9
2022-10-04T10:15:40.486Z,15
2022-10-04T10:16:46.061Z,15
2022-10-04T10:17:50.694Z,15.1
2022-10-04T10:18:54.186Z,15.4
2022-10-04T10:19:57.269Z,15.6
2022-10-04T10:21:00.956Z,15.6
2022-10-04T10:22:04.010Z,15.5
2022-10-04T10:23:07.388Z,15.5
2022-10-04T10:24:10.385Z,15.6
2022-10-04T10:25:13.460Z,15.7
2022-10-04T10:26:16.846Z,15.5
2022-10-04T10:27:19.313Z,15.8
2022-10-04T10:28:23.137Z,15.8
2022-10-04T10:29:26.354Z,15.9
2022-10-04T10:30:29.468Z,16
2022-10-04T10:31:33.482Z,16
2022-10-04T10:32:36.960Z,16.2
2022-10-04T10:33:39.430Z,16.1
2022-10-04T10:34:42.343Z,16.1
2022-10-04T10:35:45.839Z,16
2022-10-04T10:36:49.854Z,15.9
2022-10-04T10:37:52.755Z,15.8
2022-10-04T10:38:55.339Z,16
2022-10-04T10:39:58.582Z,15.8
2022-10-04T10:41:01.410Z,16
2022-10-04T10:42:04.400Z,16.1
2022-10-04T10:43:07.588Z,16.2
2022-10-04T10:44:10.654Z,15.9
2022-10-04T10:45:13.171Z,16
2022-10-04T10:46:17.070Z,16.3
2022-10-04T10:47:20.890Z,16.4
2022-10-04T10:48:24.390Z,16.4
2022-10-04T10:49:27.313Z,16.6
2022-10-04T10:50:31.146Z,16.9
2022-10-04T10:51:33.939Z,17.2
2022-10-04T10:52:36.460Z,17.4
2022-10-04T10:53:39.911Z,17.5
2022-10-04T10:54:42.715Z,17.6
2022-10-04T10:55:45.506Z,17.2
2022-10-04T10:56:49.081Z,17.3
2022-10-04T10:57:52.874Z,17.6
2022-10-04T10:58:56.340Z,17.5
2022-10-04T10:59:59.408Z,17.7
2022-10-04T11:01:02.872Z,17.5
2022-10-04T11:02:06.777Z,17.6
2022-10-04T11:03:32.172Z,17.9
2022-10-04T11:04:36.406Z,17.5
2022-10-04T11:05:40.088Z,17.8
2022-10-04T11:06:43.889Z,17.9
2022-10-04T11:07:47.269Z,17.8
2022-10-04T11:08:49.790Z,18.1
2022-10-04T11:09:52.733Z,18
2022-10-04T11:10:55.913Z,18.1
2022-10-04T11:11:58.460Z,17.9
2022-10-04T11:13:01.893Z,17.9
2022-10-04T11:14:04.913Z,18.1
2022-10-04T11:15:08.086Z,18.4
2022-10-04T11:16:11.918Z,18.9
2022-10-04T11:17:14.823Z,18.6
2022-10-04T11:18:17.537Z,18.5
2022-10-04T11:19:20.959Z,18.2
2022-10-04T11:20:24.393Z,18
2022-10-04T11:21:27.574Z,18.1
2022-10-04T11:22:39.316Z,18.2
2022-10-04T11:23:42.106Z,18.6
2022-10-04T11:24:45.802Z,18.4
2022-10-04T11:25:48.618Z,18.6
2022-10-04T11:26:51.492Z,18.4
2022-10-04T11:27:59.402Z,18.7
2022-10-04T11:29:02.246Z,18.5
2022-10-04T11:30:05.973Z,18.5
2022-10-04T11:31:09.158Z,18.6
2022-10-04T11:32:12.243Z,18.8
2022-10-04T11:33:15.336Z,19.2
2022-10-04T11:34:18.514Z,19.1
2022-10-04T11:35:20.834Z,19.3
2022-10-04T11:36:24.086Z,19.8
2022-10-04T11:37:27.977Z,20.3
2022-10-04T11:38:31.218Z,20.4
2022-10-04T11:39:34.563Z,20.3
2022-10-04T11:40:37.907Z,19.9
2022-10-04T11:41:40.730Z,19.9
2022-10-04T11:42:44.167Z,19.9
2022-10-04T11:43:47.146Z,19.5
2022-10-04T11:44:50.313Z,19.2
2022-10-04T11:45:53.495Z,19.9
2022-10-04T11:46:57.432Z,19.7
2022-10-04T11:48:01.086Z,19.7
2022-10-04T11:49:04.275Z,18.9
2022-10-04T11:50:07.144Z,19.4
2022-10-04T11:51:10.654Z,19.9
2022-10-04T11:52:14.728Z,20.1
2022-10-04T11:53:17.854Z,19.8
2022-10-04T11:54:20.381Z,19.9
2022-10-04T11:55:24.105Z,20.5
2022-10-04T11:56:27.275Z,21.1
2022-10-04T11:57:31.008Z,20.5
2022-10-04T11:58:34.072Z,20.4
2022-10-04T11:59:37.797Z,20.6
2022-10-04T12:00:41.042Z,20.8
2022-10-04T12:01:44.143Z,20.7
2022-10-04T12:02:47.482Z,20.6
2022-10-04T12:03:52.349Z,20.3
2022-10-04T12:04:55.703Z,20.6
2022-10-04T12:05:58.867Z,20.6
2022-10-04T12:07:02.213Z,20.7
2022-10-04T12:08:06.025Z,20.8
2022-10-04T12:09:09.800Z,21.1
2022-10-04T12:10:13.239Z,21.2
2022-10-04T12:11:16.040Z,20.8
2022-10-04T12:12:19.326Z,21.1
2022-10-04T12:13:22.309Z,21.3
2022-10-04T12:14:24.901Z,20.9
2022-10-04T12:15:28.314Z,20.8
2022-10-04T12:16:32.385Z,21.4
2022-10-04T12:17:35.207Z,21.6
2022-10-04T12:18:38.290Z,21.8
2022-10-04T12:19:41.446Z,21.3
2022-10-04T12:20:45.206Z,21.8
2022-10-04T12:21:48.124Z,22.7
2022-10-04T12:22:51.116Z,23.1
2022-10-04T12:23:53.990Z,23.4
2022-10-04T12:24:57.308Z,23.6
2022-10-04T12:26:00.767Z,22.9
2022-10-04T12:27:03.914Z,23.3
2022-10-04T12:28:07.337Z,23.2
2022-10-04T12:29:09.662Z,22.5
2022-10-04T12:30:13.092Z,22.1
2022-10-04T12:31:17.047Z,21.3
2022-10-04T12:32:20.213Z,20.6
2022-10-04T12:33:22.790Z,20.2
2022-10-04T12:34:26.075Z,20.2
2022-10-04T12:35:29.233Z,19.7
2022-10-04T12:36:32.908Z,19.7
2022-10-04T12:37:35.621Z,20
2022-10-04T12:38:39.328Z,19.9
2022-10-04T12:39:42.691Z,19.9
2022-10-04T12:40:46.175Z,19.8
2022-10-04T12:41:49.917Z,20
2022-10-04T12:42:53.649Z,20
2022-10-04T12:43:57.466Z,20.1
2022-10-04T12:45:00.641Z,19.8
2022-10-04T12:46:03.515Z,19.6
2022-10-04T12:47:06.493Z,19.9
2022-10-04T12:48:09.653Z,20.1
2022-10-04T12:49:12.595Z,19.9
2022-10-04T12:50:15.325Z,19.4
2022-10-04T12:51:18.527Z,19
2022-10-04T12:52:21.081Z,19.1
2022-10-04T12:53:23.600Z,19.6
2022-10-04T12:54:27.326Z,19.6
2022-10-04T12:55:30.996Z,19.9
2022-10-04T12:56:33.763Z,19.5
2022-10-04T12:57:37.109Z,19.4
2022-10-04T12:58:40.766Z,19.4
2022-10-04T12:59:43.563Z,19.7
2022-10-04T13:00:47.578Z,19.7
2022-10-04T13:01:50.703Z,19.7
2022-10-04T13:02:53.664Z,19.8
2022-10-04T13:03:56.382Z,19.8
2022-10-04T13:04:59.039Z,19.9
2022-10-04T13:06:02.105Z,20.2
2022-10-04T13:07:04.909Z,19.8
2022-10-04T13:08:07.985Z,19.8
2022-10-04T13:09:11.340Z,19.6
2022-10-04T13:10:27.333Z,19.4
2022-10-04T13:11:31.092Z,19.9
2022-10-04T13:12:34.218Z,19.5
2022-10-04T13:13:37.677Z,20
2022-10-04T13:14:40.825Z,20.1
2022-10-04T13:17:35.600Z,20.1
2022-10-04T13:18:39.282Z,20.1
2022-10-04T13:19:42.458Z,19.8
2022-10-04T13:20:45.603Z,19.9
2022-10-04T13:21:49.598Z,19.9
2022-10-04T13:22:59.671Z,20.5
2022-10-04T13:24:03.259Z,20.1
2022-10-04T13:25:05.804Z,19.8
2022-10-04T13:26:08.695Z,19.8
2022-10-04T13:27:12.188Z,20
2022-10-04T13:28:15.626Z,19.9
2022-10-04T13:29:18.617Z,20
2022-10-04T13:30:21.563Z,19.9
2022-10-04T13:31:25.194Z,19.6
2022-10-04T13:32:29.061Z,19.8
2022-10-04T13:33:32.802Z,19.6
2022-10-04T13:34:35.727Z,19.5
2022-10-04T13:35:38.987Z,19.4
2022-10-04T13:36:41.902Z,19.7
2022-10-04T13:37:45.615Z,19.7
2022-10-04T13:38:48.327Z,19.4
2022-10-04T13:39:51.795Z,19.3
2022-10-04T13:40:54.401Z,19.3
2022-10-04T13:41:56.909Z,19.4
2022-10-04T13:42:59.831Z,19.6
2022-10-04T13:44:02.344Z,19.3
2022-10-04T13:45:05.689Z,19.4
2022-10-04T13:46:08.867Z,19.5
2022-10-04T13:47:12.135Z,19.3
2022-10-04T13:48:23.224Z,19.2
2022-10-04T13:49:26.420Z,19.3
2022-10-04T13:50:29.606Z,19.4
2022-10-04T13:51:32.960Z,19.3
2022-10-04T13:52:36.052Z,19
2022-10-04T13:53:39.802Z,19.1
2022-10-04T13:54:42.799Z,19.1
2022-10-04T13:55:45.555Z,18.9
2022-10-04T13:56:49.269Z,18.9
2022-10-04T13:57:51.700Z,19.1
2022-10-04T13:58:55.120Z,19.4
2022-10-04T13:59:58.298Z,19.7
2022-10-04T14:01:01.551Z,19.8
2022-10-04T14:02:05.371Z,19.9
2022-10-04T14:03:09.148Z,19.8
2022-10-04T14:04:12.423Z,19.3
2022-10-04T14:05:14.937Z,19.5
2022-10-04T14:06:18.292Z,19.3
2022-10-04T14:07:21.094Z,19.3
2022-10-04T14:08:24.659Z,19.4
2022-10-04T14:09:28.102Z,19.3